Aughwick, Pennsylvania
Current Conditions -  °F | °C
As of 7:53 PM on Tuesday 27 Jan 2015 (Local Time) from KAOO Reporting Station
Broken Clouds Broken Clouds  
Wind Chill:   Ceiling: 8000
Heat Index: 20°   Visibility: 10mi
Dew Point: 13°   Wind: 12mph
Humidity: 74%   Direction: 290°WNW
Pressure: 29.92"   Gusts: NA
Location:  40.4281°N, 77.8329°W
Report Text: KAOO 280053Z AUTO 29010KT 10SM FEW021 BKN080 M07/M11 A2992 RMK AO2 SLP156 T10671106
Loading
Personal Weather Stations






























Interactive Weather Map New forecast layout! Learn more

10-Day Weather Forecast

Advertisements
Track Severe Weather on mobile